Time;durP1;ratioP1;P1;durP2;ratioP2;P2;SDS_P1;SDS_P2;PMS_P1;PMS_P2;Temp;Humidity;BMP_temperature;BMP_pressure;BME280_temperature;BME280_humidity;BME280_pressure;Samples;Min_cycle;Max_cycle;Signal;HPM_P1;HPM_P2
2023/08/20 00:01:18;;;;;;;14.15;4.90;;;;;;;17.91;100.00;101378.53;5014908;28;20410;-83
2023/08/20 00:03:48;;;;;;;13.68;5.25;;;;;;;17.84;100.00;101384.47;4977731;28;20833;-83
2023/08/20 00:06:16;;;;;;;11.85;4.65;;;;;;;17.75;100.00;101392.66;4981422;28;20418;-83
2023/08/20 00:08:50;;;;;;;13.20;4.63;;;;;;;17.73;100.00;101383.91;4985431;28;20428;-83
2023/08/20 00:11:23;;;;;;;13.10;4.82;;;;;;;17.70;100.00;101389.22;4978618;28;20425;-83
2023/08/20 00:13:57;;;;;;;11.07;4.47;;;;;;;17.69;100.00;101399.44;4981399;28;21239;-83
2023/08/20 00:16:31;;;;;;;13.05;4.80;;;;;;;17.70;100.00;101401.03;4983816;28;20421;-83
2023/08/20 00:19:05;;;;;;;9.95;4.43;;;;;;;17.62;100.00;101396.25;4982012;28;20467;-83
2023/08/20 00:21:42;;;;;;;12.20;4.80;;;;;;;17.49;100.00;101406.19;4984121;28;20423;-83
2023/08/20 00:24:16;;;;;;;13.05;5.10;;;;;;;17.51;100.00;101403.94;4978943;28;20527;-83
2023/08/20 00:26:49;;;;;;;13.60;5.20;;;;;;;17.53;100.00;101403.66;4979130;28;20439;-83
2023/08/20 00:29:19;;;;;;;15.18;5.50;;;;;;;17.53;100.00;101407.22;5013096;28;20438;-83
2023/08/20 00:31:48;;;;;;;10.38;4.97;;;;;;;17.56;100.00;101406.56;4980007;28;20412;-83
2023/08/20 00:34:16;;;;;;;14.02;5.00;;;;;;;17.42;100.00;101411.31;4983098;28;20443;-83
2023/08/20 00:36:44;;;;;;;11.00;5.18;;;;;;;17.45;100.00;101416.19;4982701;28;20860;-83
2023/08/20 00:39:12;;;;;;;12.20;5.30;;;;;;;17.38;100.00;101413.84;4979566;28;20428;-83
2023/08/20 00:41:40;;;;;;;13.15;4.80;;;;;;;17.34;100.00;101415.59;5017428;28;20422;-86
2023/08/20 00:44:14;;;;;;;12.45;5.30;;;;;;;17.36;100.00;101427.13;4986828;28;20427;-84
2023/08/20 00:46:48;;;;;;;15.73;6.18;;;;;;;17.28;100.00;101425.88;4978066;28;20435;-83
2023/08/20 00:49:21;;;;;;;13.43;5.33;;;;;;;17.27;100.00;101428.94;4980167;28;20425;-86
2023/08/20 00:51:55;;;;;;;12.50;5.30;;;;;;;17.17;100.00;101432.72;4982090;28;20457;-83
2023/08/20 00:54:23;;;;;;;15.18;5.53;;;;;;;17.20;100.00;101431.31;4986581;28;20442;-83
2023/08/20 00:56:52;;;;;;;12.38;5.75;;;;;;;17.17;100.00;101436.28;5005299;28;20439;-83
2023/08/20 00:59:25;;;;;;;14.82;5.63;;;;;;;17.10;100.00;101435.06;4983382;28;20953;-83
2023/08/20 01:01:59;;;;;;;15.35;6.50;;;;;;;17.11;100.00;101431.19;4983077;28;20437;-83
2023/08/20 01:04:33;;;;;;;16.08;6.13;;;;;;;17.11;100.00;101429.28;4977799;28;20455;-83
2023/08/20 01:07:18;;;;;;;13.80;6.20;;;;;;;17.10;100.00;101435.06;4985111;28;20925;-83
2023/08/20 01:09:57;;;;;;;16.67;6.28;;;;;;;17.02;100.00;101433.84;4996319;28;20810;-83
2023/08/20 01:12:31;;;;;;;14.98;6.18;;;;;;;17.02;100.00;101438.53;4976224;28;20447;-83
2023/08/20 01:15:05;;;;;;;17.25;6.10;;;;;;;16.96;100.00;101435.88;4981725;28;20428;-83
2023/08/20 01:17:39;;;;;;;15.80;6.30;;;;;;;17.02;100.00;101447.59;4973998;28;20419;-83
2023/08/20 01:20:15;;;;;;;16.20;5.95;;;;;;;16.97;100.00;101444.94;4981040;28;20424;-83
2023/08/20 01:23:05;;;;;;;16.07;6.47;;;;;;;16.90;100.00;101430.78;4973195;28;20431;-83
2023/08/20 01:25:51;;;;;;;15.00;6.60;;;;;;;16.80;100.00;101440.81;4977972;28;20420;-84
2023/08/20 01:28:25;;;;;;;16.45;6.55;;;;;;;16.76;100.00;101419.75;4979879;28;20768;-83
2023/08/20 01:30:55;;;;;;;17.05;6.63;;;;;;;16.71;100.00;101423.41;4979583;28;20427;-83
2023/08/20 01:33:28;;;;;;;15.57;6.45;;;;;;;16.75;100.00;101434.59;4983357;28;20422;-83
2023/08/20 01:35:59;;;;;;;17.50;6.68;;;;;;;16.75;100.00;101438.19;5014838;28;20418;-83
2023/08/20 01:38:32;;;;;;;19.20;6.32;;;;;;;16.76;100.00;101441.72;4980727;28;20439;-85
2023/08/20 01:41:00;;;;;;;16.00;6.97;;;;;;;16.78;100.00;101432.06;4977993;28;20515;-83
2023/08/20 01:43:35;;;;;;;12.60;6.43;;;;;;;16.67;100.00;101427.88;4984741;28;20430;-83
2023/08/20 01:46:09;;;;;;;16.07;6.57;;;;;;;16.62;100.00;101427.97;4983289;28;20414;-83
2023/08/20 01:48:42;;;;;;;16.75;7.18;;;;;;;16.53;100.00;101430.59;4975568;28;20432;-84
2023/08/20 01:51:16;;;;;;;18.15;6.20;;;;;;;16.44;100.00;101427.72;4986921;28;20418;-84
2023/08/20 01:53:49;;;;;;;15.55;6.70;;;;;;;16.40;100.00;101434.13;4995676;28;20432;-83
2023/08/20 01:56:24;;;;;;;14.40;6.30;;;;;;;16.46;100.00;101425.50;4978339;28;20431;-84
2023/08/20 01:58:54;;;;;;;14.40;6.68;;;;;;;16.43;100.00;101425.28;4980249;28;20435;-84
2023/08/20 02:01:27;;;;;;;17.77;7.07;;;;;;;16.35;100.00;101429.53;4974960;28;20435;-84
2023/08/20 02:03:55;;;;;;;18.95;6.60;;;;;;;16.40;100.00;101431.38;5011372;28;20432;-83
2023/08/20 02:06:28;;;;;;;17.10;6.68;;;;;;;16.36;100.00;101424.84;4988409;28;20427;-85
2023/08/20 02:09:02;;;;;;;17.45;7.40;;;;;;;16.25;100.00;101421.47;4983287;28;20428;-84
2023/08/20 02:11:36;;;;;;;19.38;7.15;;;;;;;16.22;100.00;101417.38;4985158;28;20437;-84
2023/08/20 02:14:06;;;;;;;16.90;7.65;;;;;;;16.19;100.00;101412.50;4979501;28;20442;-84
2023/08/20 02:16:39;;;;;;;17.52;7.60;;;;;;;16.23;100.00;101426.47;4988619;28;20941;-85
2023/08/20 02:19:13;;;;;;;15.98;7.40;;;;;;;16.22;100.00;101425.63;5011562;28;20793;-85
2023/08/20 02:21:47;;;;;;;16.30;7.30;;;;;;;16.19;100.00;101430.91;4992179;28;20791;-85
2023/08/20 02:24:15;;;;;;;16.33;7.25;;;;;;;16.15;100.00;101431.50;4987175;28;20427;-85
2023/08/20 02:26:49;;;;;;;46.37;10.77;;;;;;;16.09;100.00;101429.94;4978129;28;20420;-86
2023/08/20 02:29:18;;;;;;;16.65;7.18;;;;;;;16.05;100.00;101428.13;4999502;28;20435;-85
2023/08/20 02:31:51;;;;;;;26.27;9.13;;;;;;;16.11;100.00;101435.94;4997598;28;20951;-86
2023/08/20 02:34:19;;;;;;;16.23;7.77;;;;;;;16.06;100.00;101432.47;4985314;28;20445;-86
2023/08/20 02:36:48;;;;;;;18.13;7.80;;;;;;;16.04;100.00;101430.03;4982327;28;20445;-86
2023/08/20 02:39:21;;;;;;;432.58;44.25;;;;;;;16.14;100.00;101435.38;4985470;28;20799;-86
2023/08/20 02:41:54;;;;;;;20.90;8.50;;;;;;;16.11;100.00;101437.88;5003304;28;20424;-86
2023/08/20 02:44:29;;;;;;;17.20;8.10;;;;;;;16.09;100.00;101435.44;4984501;28;20423;-86
2023/08/20 02:47:02;;;;;;;19.98;8.30;;;;;;;16.12;100.00;101434.84;4992576;28;20418;-87
2023/08/20 02:49:35;;;;;;;18.23;7.85;;;;;;;16.14;100.00;101440.88;4991300;28;20430;-86
2023/08/20 02:52:04;;;;;;;18.10;8.35;;;;;;;16.05;100.00;101437.16;4985636;28;20419;-86
2023/08/20 02:54:37;;;;;;;15.43;7.93;;;;;;;15.91;100.00;101439.00;4979253;28;20503;-87
2023/08/20 02:57:10;;;;;;;14.73;7.72;;;;;;;15.91;100.00;101431.59;4980951;28;20793;-87
2023/08/20 02:59:40;;;;;;;16.83;7.90;;;;;;;15.93;100.00;101428.56;4988484;28;20879;-87
2023/08/20 03:02:13;;;;;;;17.20;8.03;;;;;;;15.84;100.00;101425.69;4979120;28;20424;-87
2023/08/20 03:04:41;;;;;;;18.58;8.48;;;;;;;15.90;100.00;101423.66;4984440;28;20788;-87
2023/08/20 03:07:14;;;;;;;19.80;7.80;;;;;;;15.81;100.00;101423.50;4989386;28;20421;-87
2023/08/20 03:09:48;;;;;;;15.75;7.55;;;;;;;15.78;100.00;101429.56;4989245;28;20436;-86
2023/08/20 03:12:16;;;;;;;16.48;7.05;;;;;;;15.70;100.00;101428.31;4989162;28;20430;-86
2023/08/20 03:14:50;;;;;;;15.43;7.00;;;;;;;15.54;100.00;101435.94;4976339;28;20424;-87
2023/08/20 03:17:24;;;;;;;14.52;6.95;;;;;;;15.38;100.00;101438.06;4988176;28;20428;-87
2023/08/20 03:19:56;;;;;;;19.15;7.43;;;;;;;15.35;100.00;101432.34;4983507;28;20435;-86
2023/08/20 03:22:30;;;;;;;17.15;7.68;;;;;;;15.47;100.00;101433.56;4985002;28;20423;-87
2023/08/20 03:25:03;;;;;;;15.77;7.75;;;;;;;15.51;100.00;101444.75;4992582;28;20422;-87
2023/08/20 03:27:31;;;;;;;13.82;6.88;;;;;;;15.42;100.00;101438.28;4991473;28;20774;-86
2023/08/20 03:30:07;;;;;;;16.25;7.60;;;;;;;15.37;100.00;101439.19;4973584;28;20427;-86
2023/08/20 03:32:36;;;;;;;16.20;7.15;;;;;;;15.32;100.00;101444.72;4990908;28;20433;-86
2023/08/20 03:35:10;;;;;;;16.42;7.53;;;;;;;15.32;100.00;101441.19;4980520;28;20419;-86
2023/08/20 03:37:39;;;;;;;13.75;7.38;;;;;;;15.29;100.00;101453.53;4988937;28;20926;-87
2023/08/20 03:40:13;;;;;;;15.88;7.60;;;;;;;15.22;100.00;101450.31;5013753;28;20911;-86
2023/08/20 03:42:41;;;;;;;16.30;7.70;;;;;;;15.28;100.00;101457.38;5013355;28;20845;-85
2023/08/20 03:45:11;;;;;;;14.20;7.60;;;;;;;15.23;100.00;101462.91;4985959;28;20435;-86
2023/08/20 03:47:43;;;;;;;19.58;9.02;;;;;;;15.18;100.00;101457.50;4984485;28;20748;-85
2023/08/20 03:50:12;;;;;;;15.50;8.00;;;;;;;15.22;100.00;101475.00;5013709;28;20428;-85
2023/08/20 03:52:40;;;;;;;17.95;9.30;;;;;;;15.25;100.00;101469.75;4983557;28;20882;-84
2023/08/20 03:55:13;;;;;;;19.77;9.00;;;;;;;15.21;100.00;101465.97;4980451;28;20770;-85
2023/08/20 03:57:46;;;;;;;18.88;9.20;;;;;;;15.29;100.00;101464.50;4978870;28;20422;-85
2023/08/20 04:00:21;;;;;;;21.45;10.30;;;;;;;15.33;100.00;101470.22;4979427;28;20420;-84
2023/08/20 04:02:49;;;;;;;25.63;11.05;;;;;;;15.36;100.00;101466.91;4982961;28;20418;-83
2023/08/20 04:05:22;;;;;;;26.75;12.50;;;;;;;15.40;100.00;101474.25;4978242;28;20435;-84
2023/08/20 04:07:57;;;;;;;25.03;12.20;;;;;;;15.47;100.00;101473.88;4982088;28;20436;-82
2023/08/20 04:10:30;;;;;;;28.40;11.93;;;;;;;15.50;100.00;101472.50;4989113;28;20893;-84
2023/08/20 04:13:03;;;;;;;24.73;11.65;;;;;;;15.53;100.00;101483.69;4981361;28;20791;-83
2023/08/20 04:15:38;;;;;;;46.13;11.48;;;;;;;15.46;100.00;101483.22;4981153;28;20428;-83
2023/08/20 04:18:11;;;;;;;42.50;10.90;;;;;;;15.41;100.00;101484.09;4980802;28;20416;-85
2023/08/20 04:20:45;;;;;;;30.73;10.68;;;;;;;15.39;100.00;101480.81;4981183;28;20794;-83
2023/08/20 04:23:18;;;;;;;25.98;11.20;;;;;;;15.41;100.00;101484.09;4981425;28;20426;-83
2023/08/20 04:25:51;;;;;;;33.90;10.77;;;;;;;15.41;100.00;101486.00;4975883;28;20427;-84
2023/08/20 04:28:25;;;;;;;36.33;10.73;;;;;;;15.37;100.00;101490.47;4981535;28;20427;-83
2023/08/20 04:31:00;;;;;;;22.75;11.25;;;;;;;15.40;100.00;101485.22;4978381;28;20758;-83
2023/08/20 04:33:38;;;;;;;55.90;8.27;;;;;;;15.43;100.00;101497.53;4995412;28;20420;-83
2023/08/20 04:36:11;;;;;;;19.92;9.27;;;;;;;15.49;100.00;101493.59;4987250;28;20427;-83
2023/08/20 04:38:39;;;;;;;19.38;9.52;;;;;;;15.52;100.00;101497.69;5011804;28;20457;-83
2023/08/20 04:41:13;;;;;;;23.75;8.63;;;;;;;15.49;100.00;101499.09;4979874;28;20789;-83
2023/08/20 04:43:47;;;;;;;52.67;8.93;;;;;;;15.55;100.00;101497.09;5011392;28;20447;-83
2023/08/20 04:46:16;;;;;;;89.45;8.82;;;;;;;15.47;100.00;101504.06;4974164;28;20432;-85
2023/08/20 04:48:45;;;;;;;24.27;8.82;;;;;;;15.55;100.00;101497.09;5012123;28;20419;-83
2023/08/20 04:51:19;;;;;;;45.63;7.80;;;;;;;15.43;100.00;101500.28;4977739;28;20424;-83
2023/08/20 04:53:47;;;;;;;101.60;7.65;;;;;;;15.42;100.00;101510.41;4981321;28;20894;-85
2023/08/20 04:56:15;;;;;;;41.58;7.45;;;;;;;15.43;100.00;101509.31;5013510;28;20933;-84
2023/08/20 04:58:44;;;;;;;80.07;8.02;;;;;;;15.35;100.00;101511.88;5005849;28;20420;-86
2023/08/20 05:01:37;;;;;;;25.00;7.47;;;;;;;15.39;100.00;101508.25;4976281;28;20432;-84
2023/08/20 05:04:13;;;;;;;58.97;8.40;;;;;;;15.38;100.00;101512.09;4998520;28;20430;-83
2023/08/20 05:06:46;;;;;;;36.67;9.35;;;;;;;15.44;100.00;101515.63;4986840;28;20950;-86
2023/08/20 05:09:14;;;;;;;26.42;8.65;;;;;;;15.58;100.00;101511.06;5008657;28;20461;-83
2023/08/20 05:11:48;;;;;;;46.33;9.63;;;;;;;15.58;100.00;101510.25;4979400;28;20412;-86
2023/08/20 05:14:21;;;;;;;19.70;9.50;;;;;;;15.76;100.00;101517.69;4979361;28;20434;-83
2023/08/20 05:16:56;;;;;;;27.52;10.63;;;;;;;15.89;100.00;101505.19;4983044;28;20433;-84
2023/08/20 05:19:29;;;;;;;20.17;10.20;;;;;;;15.97;100.00;101512.75;4983107;28;20433;-84
2023/08/20 05:22:03;;;;;;;21.35;10.45;;;;;;;16.22;100.00;101510.75;4977068;28;20451;-84
2023/08/20 05:24:36;;;;;;;23.20;10.40;;;;;;;16.54;100.00;101517.41;4979979;28;20789;-85
2023/08/20 05:27:06;;;;;;;22.38;9.70;;;;;;;16.45;100.00;101513.72;4979287;28;20420;-84
2023/08/20 05:29:40;;;;;;;20.00;9.83;;;;;;;16.51;100.00;101507.00;4986419;28;20564;-84
2023/08/20 05:32:16;;;;;;;19.92;9.10;;;;;;;16.59;100.00;101505.53;4980063;28;20420;-84
2023/08/20 05:34:49;;;;;;;17.27;8.57;;;;;;;16.51;100.00;101507.00;4995132;28;20428;-84
2023/08/20 05:37:22;;;;;;;15.32;8.27;;;;;;;16.47;100.00;101495.00;4988299;28;20437;-84
2023/08/20 05:39:55;;;;;;;16.50;8.32;;;;;;;16.61;100.00;101495.88;4990395;28;20430;-84
2023/08/20 05:42:29;;;;;;;16.55;8.65;;;;;;;16.63;100.00;101495.56;4988219;28;20426;-83
2023/08/20 05:45:07;;;;;;;18.52;8.70;;;;;;;16.64;100.00;101500.75;4991943;28;20915;-84
2023/08/20 05:47:42;;;;;;;17.08;8.88;;;;;;;16.72;100.00;101501.97;4985444;28;20904;-83
2023/08/20 05:50:15;;;;;;;23.08;9.40;;;;;;;16.60;100.00;101505.22;4987294;28;20887;-83
2023/08/20 05:52:49;;;;;;;19.40;9.75;;;;;;;16.65;100.00;101496.91;4996127;28;20443;-83
2023/08/20 05:55:17;;;;;;;18.48;9.27;;;;;;;16.70;100.00;101493.22;5014175;28;20449;-84
2023/08/20 05:57:50;;;;;;;16.98;9.20;;;;;;;16.68;100.00;101489.97;4990856;28;20437;-84
2023/08/20 06:00:19;;;;;;;20.23;9.30;;;;;;;16.72;100.00;101490.97;5012883;28;20430;-84
2023/08/20 06:02:53;;;;;;;16.60;8.93;;;;;;;16.88;100.00;101468.75;4996358;28;20963;-84
2023/08/20 06:05:27;;;;;;;17.98;9.00;;;;;;;16.96;100.00;101457.88;5012961;28;20782;-84
2023/08/20 06:08:00;;;;;;;18.58;9.20;;;;;;;17.03;100.00;101471.22;4982656;28;20432;-84
2023/08/20 06:10:29;;;;;;;17.63;8.50;;;;;;;17.13;100.00;101467.47;5003014;28;20430;-85
2023/08/20 06:13:02;;;;;;;18.30;8.57;;;;;;;17.05;100.00;101457.16;4983376;28;20441;-84
2023/08/20 06:15:31;;;;;;;17.27;8.20;;;;;;;16.97;100.00;101450.44;4984584;28;20417;-85
2023/08/20 06:18:00;;;;;;;17.92;8.70;;;;;;;16.86;100.00;101469.03;4987846;28;20910;-89
2023/08/20 06:20:29;;;;;;;18.85;9.20;;;;;;;16.88;100.00;101485.25;4983252;28;21579;-86
2023/08/20 06:22:57;;;;;;;17.38;8.40;;;;;;;16.94;100.00;101486.78;5020618;28;20461;-87
2023/08/20 06:25:31;;;;;;;20.67;9.23;;;;;;;16.77;100.00;101501.09;4988345;28;20946;-86
2023/08/20 06:27:59;;;;;;;19.23;8.80;;;;;;;16.82;100.00;101507.31;5019197;28;20906;-86
2023/08/20 06:30:32;;;;;;;20.92;9.55;;;;;;;16.87;100.00;101494.59;4984124;28;20425;-86
2023/08/20 06:33:08;;;;;;;20.15;9.80;;;;;;;16.94;100.00;101501.34;4983716;28;20789;-87
2023/08/20 06:35:42;;;;;;;21.67;9.88;;;;;;;17.06;100.00;101508.31;4990535;28;20431;-87
2023/08/20 06:38:15;;;;;;;22.90;9.97;;;;;;;17.16;100.00;101519.91;4985799;28;20429;-86
2023/08/20 06:40:43;;;;;;;21.70;10.23;;;;;;;17.17;100.00;101507.00;4993666;28;20439;-87
2023/08/20 06:43:11;;;;;;;20.90;10.25;;;;;;;17.29;100.00;101503.72;4987743;28;20439;-87
2023/08/20 06:45:44;;;;;;;23.00;11.05;;;;;;;17.30;100.00;101511.69;4992069;28;20430;-87
2023/08/20 06:48:20;;;;;;;27.33;12.25;;;;;;;17.45;100.00;101518.81;4988795;28;20428;-86
2023/08/20 06:50:48;;;;;;;22.60;11.25;;;;;;;17.57;100.00;101525.75;4980373;28;20440;-85
2023/08/20 06:53:21;;;;;;;21.50;10.57;;;;;;;17.54;100.00;101529.94;4985985;28;20433;-85
2023/08/20 06:55:49;;;;;;;22.83;9.65;;;;;;;17.50;100.00;101539.91;4980340;28;20424;-84
2023/08/20 06:58:22;;;;;;;21.10;9.48;;;;;;;17.71;100.00;101534.00;4989765;28;20422;-86
2023/08/20 07:00:56;;;;;;;21.02;9.50;;;;;;;17.74;100.00;101536.94;4985286;28;20426;-85
2023/08/20 07:03:25;;;;;;;18.20;8.98;;;;;;;17.80;100.00;101527.47;4988368;28;20422;-84
2023/08/20 07:05:54;;;;;;;17.52;9.40;;;;;;;17.66;100.00;101534.91;4992025;28;20423;-86
2023/08/20 07:08:22;;;;;;;17.85;8.90;;;;;;;17.80;100.00;101532.97;4988276;28;20432;-84
2023/08/20 07:10:50;;;;;;;20.15;8.57;;;;;;;17.98;100.00;101530.38;4988085;28;20435;-84
2023/08/20 07:13:24;;;;;;;20.67;8.90;;;;;;;17.99;100.00;101534.78;4987090;28;20439;-84
2023/08/20 07:15:57;;;;;;;18.60;7.70;;;;;;;18.13;100.00;101526.47;4997057;28;20427;-85
2023/08/20 07:18:26;;;;;;;20.00;6.70;;;;;;;18.25;100.00;101535.03;5017066;28;20434;-84
2023/08/20 07:21:00;;;;;;;16.73;6.70;;;;;;;18.33;100.00;101533.47;5000912;28;20435;-84
2023/08/20 07:23:28;;;;;;;18.20;6.75;;;;;;;18.39;100.00;101543.22;4982481;28;20429;-84
2023/08/20 07:26:06;;;;;;;13.87;6.23;;;;;;;18.49;100.00;101536.66;4981104;28;20811;-84
2023/08/20 07:28:58;;;;;;;17.20;6.47;;;;;;;18.56;100.00;101538.97;4985316;28;20450;-83
2023/08/20 07:31:32;;;;;;;17.05;6.40;;;;;;;18.67;100.00;101538.44;4996934;28;20431;-86
2023/08/20 07:34:04;;;;;;;17.42;7.30;;;;;;;18.64;100.00;101543.75;4989451;28;20438;-82
2023/08/20 07:36:37;;;;;;;17.73;6.70;;;;;;;18.93;100.00;101535.03;4996969;28;20434;-84
2023/08/20 07:39:10;;;;;;;15.30;6.30;;;;;;;18.98;100.00;101536.88;4984020;28;20435;-84
2023/08/20 07:41:39;;;;;;;16.48;5.85;;;;;;;18.91;100.00;101544.78;5018511;28;20519;-85
2023/08/20 07:44:12;;;;;;;16.20;6.78;;;;;;;19.00;100.00;101551.97;4988179;28;20435;-84
2023/08/20 07:46:40;;;;;;;16.20;6.60;;;;;;;19.01;100.00;101542.53;4981435;28;20426;-84
2023/08/20 07:49:10;;;;;;;15.15;6.20;;;;;;;19.14;100.00;101548.28;4984328;28;20912;-84
2023/08/20 07:51:38;;;;;;;15.38;6.38;;;;;;;19.24;100.00;101542.50;4985807;28;20426;-84
2023/08/20 07:54:11;;;;;;;14.52;6.05;;;;;;;19.25;100.00;101549.66;5000753;28;20436;-84
2023/08/20 07:56:44;;;;;;;14.32;6.70;;;;;;;19.29;100.00;101547.06;4996072;28;20462;-84
2023/08/20 07:59:17;;;;;;;18.10;8.23;;;;;;;19.30;100.00;101555.03;4983016;28;20426;-85
2023/08/20 08:01:45;;;;;;;18.77;8.45;;;;;;;19.27;100.00;101557.63;4978690;28;20499;-84
2023/08/20 08:04:20;;;;;;;17.42;7.80;;;;;;;19.24;100.00;101566.50;4984052;28;20883;-84
2023/08/20 08:06:48;;;;;;;16.17;8.00;;;;;;;19.33;100.00;101562.69;4983973;28;20430;-84
2023/08/20 08:09:21;;;;;;;16.95;7.72;;;;;;;19.51;100.00;101563.56;4996326;28;20428;-84
2023/08/20 08:11:50;;;;;;;14.85;6.82;;;;;;;19.50;100.00;101561.94;4979366;28;20442;-84
2023/08/20 08:14:18;;;;;;;14.73;6.30;;;;;;;19.61;100.00;101567.97;4982340;28;20418;-85
2023/08/20 08:16:47;;;;;;;17.25;7.72;;;;;;;19.67;100.00;101563.13;4990518;28;20418;-84
2023/08/20 08:19:15;;;;;;;17.17;7.80;;;;;;;19.83;100.00;101564.34;4986939;28;20503;-84
2023/08/20 08:21:45;;;;;;;18.13;8.07;;;;;;;19.68;100.00;101568.31;4984017;28;20410;-84
2023/08/20 08:24:14;;;;;;;15.73;7.05;;;;;;;19.75;100.00;101564.25;5014314;28;20435;-84
2023/08/20 08:26:47;;;;;;;15.93;6.60;;;;;;;19.64;100.00;101569.28;4985212;28;20418;-83
2023/08/20 08:29:20;;;;;;;13.48;6.63;;;;;;;19.80;100.00;101575.19;4983351;28;20438;-84
2023/08/20 08:31:49;;;;;;;15.15;6.43;;;;;;;19.85;100.00;101578.63;4986750;28;20794;-87
2023/08/20 08:34:18;;;;;;;13.02;6.18;;;;;;;19.86;100.00;101580.25;4984751;28;20434;-85
2023/08/20 08:36:52;;;;;;;17.95;6.53;;;;;;;19.94;100.00;101573.13;4985303;28;20429;-85
2023/08/20 08:39:20;;;;;;;15.75;6.40;;;;;;;20.03;100.00;101573.94;5016687;28;20431;-83
2023/08/20 08:42:01;;;;;;;13.63;4.70;;;;;;;19.96;100.00;101573.63;4980983;28;20432;-86
2023/08/20 08:44:35;;;;;;;9.18;3.97;;;;;;;19.93;100.00;101581.72;5015848;28;20424;-85
2023/08/20 08:47:08;;;;;;;12.20;3.80;;;;;;;19.96;100.00;101578.34;4994988;28;20787;-84
2023/08/20 08:49:36;;;;;;;9.65;3.60;;;;;;;19.97;100.00;101579.94;4981638;28;20503;-83
2023/08/20 08:52:07;;;;;;;13.63;4.05;;;;;;;19.88;100.00;101588.22;4982365;28;20963;-84
2023/08/20 08:54:35;;;;;;;13.57;4.10;;;;;;;20.08;100.00;101577.69;5013776;28;20436;-83
2023/08/20 08:57:03;;;;;;;12.90;3.97;;;;;;;20.28;100.00;101584.56;4987424;28;20891;-83
2023/08/20 08:59:32;;;;;;;11.00;3.63;;;;;;;20.46;100.00;101580.66;5004898;28;20426;-84
2023/08/20 09:02:02;;;;;;;11.10;3.80;;;;;;;20.32;100.00;101580.00;4981335;28;20428;-86
2023/08/20 09:04:35;;;;;;;9.45;3.53;;;;;;;20.44;100.00;101579.34;4983923;28;20417;-85
2023/08/20 09:07:12;;;;;;;10.82;3.40;;;;;;;20.57;100.00;101581.13;5005210;28;20432;-91
2023/08/20 09:09:43;;;;;;;14.47;3.50;;;;;;;20.58;100.00;101579.19;5008111;28;20435;-91
2023/08/20 09:12:16;;;;;;;9.50;3.50;;;;;;;20.70;100.00;101585.72;4986984;28;20422;-90
2023/08/20 09:14:47;;;;;;;10.68;3.33;;;;;;;20.81;100.00;101594.50;5013757;28;20455;-88
2023/08/20 09:17:16;;;;;;;8.80;2.63;;;;;;;20.73;100.00;101587.81;5015780;28;20458;-88
2023/08/20 09:19:48;;;;;;;7.00;2.50;;;;;;;20.83;100.00;101585.88;4982731;28;20426;-91
2023/08/20 09:22:17;;;;;;;9.00;2.60;;;;;;;20.54;100.00;101588.13;5013360;28;20420;-90
2023/08/20 09:24:53;;;;;;;7.47;2.42;;;;;;;20.71;100.00;101590.13;4991088;28;20422;-91
2023/08/20 09:27:22;;;;;;;10.05;2.63;;;;;;;20.84;100.00;101595.78;5020684;28;20419;-89
2023/08/20 09:29:51;;;;;;;6.78;2.33;;;;;;;20.62;100.00;101586.50;5014769;28;20427;-90
2023/08/20 09:32:21;;;;;;;8.73;2.80;;;;;;;20.82;100.00;101595.31;4996189;28;20432;-90
2023/08/20 09:34:50;;;;;;;8.67;2.80;;;;;;;20.87;100.00;101595.13;4988773;28;20418;-92
2023/08/20 09:37:21;;;;;;;11.15;2.78;;;;;;;20.98;100.00;101592.84;4992131;28;20415;-90
2023/08/20 09:39:50;;;;;;;8.80;2.67;;;;;;;21.08;100.00;101592.50;5008289;28;20424;-89
2023/08/20 09:42:19;;;;;;;11.10;3.08;;;;;;;21.26;100.00;101590.47;4983894;28;20793;-86
2023/08/20 09:44:48;;;;;;;7.87;3.10;;;;;;;21.24;100.00;101596.34;4985116;28;20799;-89
2023/08/20 09:47:17;;;;;;;8.40;3.00;;;;;;;21.12;100.00;101599.00;4987683;28;20435;-90
2023/08/20 09:49:48;;;;;;;11.05;3.13;;;;;;;20.99;100.00;101598.06;4984289;28;20441;-91
2023/08/20 09:52:21;;;;;;;10.80;3.20;;;;;;;21.06;100.00;101592.81;4987512;28;20905;-90
2023/08/20 09:55:00;;;;;;;10.75;3.53;;;;;;;21.23;100.00;101603.03;4977637;28;20424;-85
2023/08/20 09:57:34;;;;;;;20.80;10.85;;;;;;;21.47;100.00;101590.56;4989486;28;20426;-82
2023/08/20 10:00:09;;;;;;;10.25;4.20;;;;;;;21.41;100.00;101601.00;4987212;28;20426;-82
2023/08/20 10:02:43;;;;;;;9.75;3.20;;;;;;;21.46;100.00;101600.03;4987828;28;20426;-84
2023/08/20 10:05:14;;;;;;;9.33;3.30;;;;;;;21.39;100.00;101596.94;4980639;28;20423;-84
2023/08/20 10:07:43;;;;;;;7.80;3.30;;;;;;;21.48;100.00;101594.16;4989210;28;20438;-83
2023/08/20 10:10:19;;;;;;;9.73;3.85;;;;;;;21.33;100.00;101601.03;4984926;28;20434;-82
2023/08/20 10:12:48;;;;;;;10.85;3.72;;;;;;;21.48;100.00;101600.50;4985247;28;20422;-83
2023/08/20 10:15:23;;;;;;;9.82;3.92;;;;;;;21.54;100.00;101590.91;4983102;28;20800;-85
2023/08/20 10:17:58;;;;;;;8.70;3.70;;;;;;;21.62;100.00;101592.00;4980201;28;20423;-85
2023/08/20 10:20:30;;;;;;;9.02;4.03;;;;;;;21.57;100.00;101589.41;4984790;28;20420;-84
2023/08/20 10:23:03;;;;;;;10.27;4.00;;;;;;;21.53;100.00;101586.50;4977532;28;20443;-83
2023/08/20 10:25:41;;;;;;;10.33;4.30;;;;;;;21.60;100.00;101579.63;4980429;28;20804;-83
2023/08/20 10:28:21;;;;;;;10.27;4.28;;;;;;;21.72;100.00;101565.88;4986371;28;20422;-83
2023/08/20 10:31:11;;;;;;;11.02;4.25;;;;;;;21.68;100.00;101562.97;4988543;28;20435;-83
2023/08/20 10:33:49;;;;;;;11.98;4.55;;;;;;;21.77;100.00;101567.66;4985144;28;20462;-82
2023/08/20 10:36:27;;;;;;;11.27;4.55;;;;;;;22.00;100.00;101565.38;4983903;28;20436;-83
2023/08/20 10:39:05;;;;;;;10.30;4.95;;;;;;;22.02;100.00;101563.09;4981444;28;20431;-83
2023/08/20 10:41:40;;;;;;;12.07;4.68;;;;;;;21.95;100.00;101558.06;5018355;28;20533;-84
2023/08/20 10:44:08;;;;;;;12.48;4.95;;;;;;;21.96;100.00;101567.19;4984178;28;20889;-83
2023/08/20 10:46:51;;;;;;;13.25;4.60;;;;;;;22.02;100.00;101558.34;5016536;28;20432;-83
2023/08/20 10:49:19;;;;;;;11.35;4.80;;;;;;;22.05;100.00;101562.41;4985465;28;20448;-85
2023/08/20 10:51:48;;;;;;;10.18;4.50;;;;;;;22.22;100.00;101561.47;4984337;28;20424;-83
2023/08/20 10:54:21;;;;;;;11.50;5.00;;;;;;;22.16;100.00;101549.75;4989275;28;20438;-84
2023/08/20 10:56:58;;;;;;;12.05;5.00;;;;;;;22.02;100.00;101555.56;4983520;28;20435;-83
2023/08/20 10:59:31;;;;;;;10.02;4.43;;;;;;;22.25;100.00;101561.59;4983572;28;20439;-83
2023/08/20 11:02:00;;;;;;;10.30;4.03;;;;;;;22.50;100.00;101560.97;5016984;28;20435;-83
2023/08/20 11:04:33;;;;;;;8.80;3.90;;;;;;;22.47;100.00;101553.28;4983032;28;20787;-84
2023/08/20 11:07:02;;;;;;;8.82;3.97;;;;;;;22.76;100.00;101558.72;4982029;28;20422;-83
2023/08/20 11:09:39;;;;;;;10.90;4.30;;;;;;;22.88;100.00;101552.41;4984385;28;20802;-82
2023/08/20 11:12:15;;;;;;;8.10;3.45;;;;;;;22.63;100.00;101557.06;4970307;28;20426;-86
2023/08/20 11:14:43;;;;;;;11.05;3.78;;;;;;;22.54;100.00;101561.91;4979301;28;20431;-83
2023/08/20 11:17:11;;;;;;;12.77;4.20;;;;;;;22.41;100.00;101556.28;4965429;28;20712;-84
2023/08/20 11:19:45;;;;;;;10.00;3.90;;;;;;;22.56;100.00;101559.56;4966071;28;20474;-86
2023/08/20 11:22:15;;;;;;;11.82;3.80;;;;;;;22.63;100.00;101559.03;4963146;28;20434;-87
2023/08/20 11:24:48;;;;;;;9.52;3.33;;;;;;;22.83;100.00;101563.72;4964939;28;20445;-91
2023/08/20 11:27:18;;;;;;;8.98;3.15;;;;;;;22.63;100.00;101561.81;4964067;28;21108;-90
2023/08/20 11:29:46;;;;;;;13.50;3.20;;;;;;;22.47;100.00;101570.75;4965438;28;20473;-90
2023/08/20 11:32:15;;;;;;;7.95;2.90;;;;;;;22.44;100.00;101574.19;4965949;28;20430;-87